KGYR/GYR METAR and TAF weather

Enter ICAO airport designator
Station Type Date Time Source
KGYR METAR 2019/09/20 20:47 UTC NOAA

KGYR 202047Z 20006KT 10SM SKC 34/03 A2979


Station Type Date Time Source
KGYR Decoded METAR 2019/09/20 20:47 UTC NOAA

Goodyear Municipal, AZ, United States (KGYR) 33-25N 112-23W
Sep 20, 2019 - 04:47 PM EDT / 2019.09.20 2047 UTC
Wind: from the SSW (200 degrees) at 7 MPH (6 KT):0
Visibility: 10 mile(s):0
Sky conditions: clear
Temperature: 93 F (34 C)
Dew Point: 37 F (3 C)
Relative Humidity: 14%
Pressure (altimeter): 29.79 in. Hg (1008 hPa)
ob: KGYR 202047Z 20006KT 10SM SKC 34/03 A2979
cycle: 21

Station Type Date Time Source
KGYR TAF UTC NOAA

Error!

Example: see airport list